Airfield :
LOGIN :

Register | Disclaimer

   EN    FR    IT 

 










Legend :    VFR   Marginal VFR   IFR   Intensive IFR   Very Intensive IFR
Visi :
Ceiling :
>= 8 km
>= 3000ft
5 to 8 km
1000 to 3000 ft
1500m to 5 km
500 to 1000 ft
800 to 1500m
200 to 500 ft
< 800m
< 200 ft
Symbols :   Thunderstorms  Fog  Heavy snow  Heavy precipitations  Wind > 20 kt
SIGMETs :     Misc.  Thunderstorms  Icing  Turbulence  Mountain Waves  Volcanic Ashes






- Airport Elevation : 322 ft


LHSN - Szolnok

CURRENT METAR :
  • 050115Z 09004KT CAVOK 21/15 Q1009 NOSIG RMK BLU

EXPIRED METARs :
  • 050045Z 07002KT CAVOK 21/16 Q1010 NOSIG RMK BLU
  • 050015Z 05002KT CAVOK 21/16 Q1010 NOSIG RMK BLU
  • 042345Z 03002KT CAVOK 21/14 Q1010 NOSIG RMK BLU
  • 042315Z 09002KT CAVOK 21/15 Q1011 NOSIG RMK BLU
  • 042245Z 10002KT CAVOK 21/14 Q1011 NOSIG RMK BLU
  • 042215Z 02004KT CAVOK 21/15 Q1011 NOSIG RMK BLU

TAF TAF LHSN
Valid from the 04 at 21:00 until the 05 at 06:00 UTC


042015Z 0421/0506 VRB03KT CAVOK
BECMG 0421/0424 10005KT
PROB30
TEMPO 0503/0506 08010KT 9999 -SHRA SCT040 BKN070



MET'MAP, your aeronautical weather chart ! - Copyright ORBIFLY December 2007 - Disclaimer

ORBIFLY MET'MAP TEAM :

Programming & Development : Alexandra Zaïnal
Concept & original design : Baudouin d'Aumeries
Assistance for programming : Marc-Olivier Méhu
Technical & hardware support : Manuel Goepfert

Contact : metmap@orbifly.com




SOURCES & CREDITS :

   NOAA